LUJ131 EGCC-EGPH
Flight info
| Callsign | LUJ131 |
|---|---|
| Flight time | 1h 5m |
| Altitude | 18000 |
| Route | POL N601 INPIP |
| Aircraft | PC12/L-SBDFGRWY/S |
Departure
| Time | 2026-05-05 14:20 |
|---|---|
| Airport | Manchester Airport (EGCC) |
Arrival
| Time | 2026-05-05 15:25 |
|---|---|
| Airport | Edinburgh Airport (EGPH) |
| Time | Latitude | Longitude | Altitude | Speed | Heading |
|---|---|---|---|---|---|
| 2026-05-05 13:40 | 53.35901 | -2.28014 | 229 ft | 0 kts | 276° |
| 2026-05-05 13:44 | 53.35901 | -2.28013 | 229 ft | 0 kts | 276° |
| 2026-05-05 13:46 | 53.35900 | -2.28013 | 229 ft | 0 kts | 276° |
| 2026-05-05 13:51 | 53.35900 | -2.28012 | 229 ft | 0 kts | 276° |
| 2026-05-05 13:58 | 53.35900 | -2.28011 | 229 ft | 0 kts | 276° |
| 2026-05-05 14:07 | 53.35900 | -2.28010 | 229 ft | 0 kts | 276° |
| 2026-05-05 14:12 | 53.35901 | -2.28014 | 229 ft | 2 kts | 295° |
| 2026-05-05 14:13 | 53.35908 | -2.28013 | 229 ft | 3 kts | 59° |
| 2026-05-05 14:13 | 53.35896 | -2.27931 | 229 ft | 9 kts | 94° |
| 2026-05-05 14:13 | 53.35857 | -2.27856 | 229 ft | 14 kts | 188° |
| 2026-05-05 14:13 | 53.35740 | -2.27876 | 229 ft | 19 kts | 185° |
| 2026-05-05 14:14 | 53.35621 | -2.27897 | 229 ft | 14 kts | 185° |
| 2026-05-05 14:14 | 53.35509 | -2.27915 | 229 ft | 13 kts | 186° |
| 2026-05-05 14:14 | 53.35433 | -2.27957 | 229 ft | 13 kts | 225° |
| 2026-05-05 14:14 | 53.35355 | -2.28083 | 229 ft | 18 kts | 223° |
| 2026-05-05 14:15 | 53.35261 | -2.28243 | 229 ft | 20 kts | 230° |
| 2026-05-05 14:15 | 53.35163 | -2.28439 | 229 ft | 23 kts | 230° |
| 2026-05-05 14:15 | 53.35077 | -2.28618 | 229 ft | 14 kts | 232° |
| 2026-05-05 14:15 | 53.35019 | -2.28730 | 229 ft | 15 kts | 227° |
| 2026-05-05 14:16 | 53.34936 | -2.28878 | 229 ft | 11 kts | 225° |
| 2026-05-05 14:16 | 53.34876 | -2.28982 | 229 ft | 14 kts | 225° |
| 2026-05-05 14:16 | 53.34800 | -2.29122 | 229 ft | 18 kts | 230° |
| 2026-05-05 14:16 | 53.34710 | -2.29299 | 229 ft | 21 kts | 216° |
| 2026-05-05 14:17 | 53.34674 | -2.29332 | 229 ft | 0 kts | 200° |
| 2026-05-05 14:18 | 53.34619 | -2.29344 | 229 ft | 18 kts | 176° |
| 2026-05-05 14:19 | 53.34563 | -2.29176 | 229 ft | 12 kts | 51° |
| 2026-05-05 14:19 | 53.34586 | -2.29129 | 229 ft | 6 kts | 51° |
| 2026-05-05 14:19 | 53.34665 | -2.28964 | 229 ft | 43 kts | 51° |
| 2026-05-05 14:19 | 53.34967 | -2.28342 | 231 ft | 90 kts | 52° |
| 2026-05-05 14:20 | 53.35420 | -2.27419 | 316 ft | 113 kts | 51° |
| 2026-05-05 14:20 | 53.35919 | -2.26352 | 634 ft | 120 kts | 52° |
| 2026-05-05 14:20 | 53.36440 | -2.25214 | 996 ft | 128 kts | 49° |
| 2026-05-05 14:20 | 53.37009 | -2.24030 | 1527 ft | 134 kts | 49° |
| 2026-05-05 14:21 | 53.37590 | -2.22795 | 2040 ft | 135 kts | 49° |
| 2026-05-05 14:21 | 53.38173 | -2.21552 | 2620 ft | 135 kts | 49° |
| 2026-05-05 14:21 | 53.38761 | -2.20295 | 3022 ft | 142 kts | 50° |
| 2026-05-05 14:21 | 53.39374 | -2.18981 | 3487 ft | 143 kts | 50° |
| 2026-05-05 14:22 | 53.39997 | -2.17646 | 3877 ft | 148 kts | 51° |
| 2026-05-05 14:22 | 53.40634 | -2.16277 | 4315 ft | 149 kts | 50° |
| 2026-05-05 14:22 | 53.41281 | -2.14886 | 4753 ft | 150 kts | 51° |
| 2026-05-05 14:22 | 53.41937 | -2.13477 | 5009 ft | 164 kts | 51° |
| 2026-05-05 14:23 | 53.42738 | -2.11937 | 5010 ft | 186 kts | 38° |
| 2026-05-05 14:23 | 53.43960 | -2.11020 | 5008 ft | 202 kts | 11° |
| 2026-05-05 14:23 | 53.45387 | -2.10852 | 5015 ft | 210 kts | 2° |
| 2026-05-05 14:23 | 53.46869 | -2.10750 | 5019 ft | 216 kts | 3° |
| 2026-05-05 14:24 | 53.48389 | -2.10614 | 5017 ft | 221 kts | 4° |
| 2026-05-05 14:24 | 53.49938 | -2.10462 | 5020 ft | 224 kts | 4° |
| 2026-05-05 14:24 | 53.51508 | -2.10312 | 5018 ft | 227 kts | 4° |
| 2026-05-05 14:24 | 53.53092 | -2.10163 | 5020 ft | 229 kts | 4° |
| 2026-05-05 14:25 | 53.54662 | -2.10042 | 5018 ft | 228 kts | 0° |
| 2026-05-05 14:25 | 53.56247 | -2.10085 | 5015 ft | 228 kts | 360° |
| 2026-05-05 14:25 | 53.57831 | -2.10099 | 5016 ft | 228 kts | 0° |
| 2026-05-05 14:25 | 53.59419 | -2.10114 | 5016 ft | 228 kts | 0° |
| 2026-05-05 14:26 | 53.61009 | -2.10136 | 5013 ft | 228 kts | 0° |
| 2026-05-05 14:26 | 53.62599 | -2.10161 | 5016 ft | 229 kts | 0° |
| 2026-05-05 14:26 | 53.64197 | -2.10184 | 5012 ft | 229 kts | 0° |
| 2026-05-05 14:26 | 53.65795 | -2.10207 | 5013 ft | 230 kts | 0° |
| 2026-05-05 14:27 | 53.67394 | -2.10230 | 5012 ft | 229 kts | 0° |
| 2026-05-05 14:27 | 53.68988 | -2.10252 | 5017 ft | 229 kts | 0° |
| 2026-05-05 14:27 | 53.70583 | -2.10276 | 5015 ft | 229 kts | 0° |
| 2026-05-05 14:27 | 53.72156 | -2.10299 | 5016 ft | 228 kts | 0° |
| 2026-05-05 14:28 | 53.73745 | -2.10335 | 5014 ft | 227 kts | 358° |
| 2026-05-05 14:28 | 53.75274 | -2.10931 | 5059 ft | 226 kts | 340° |
| 2026-05-05 14:28 | 53.76687 | -2.11909 | 5440 ft | 210 kts | 339° |
| 2026-05-05 14:28 | 53.77967 | -2.12783 | 6193 ft | 184 kts | 340° |
| 2026-05-05 14:29 | 53.79082 | -2.13539 | 6927 ft | 165 kts | 339° |
| 2026-05-05 14:29 | 53.80151 | -2.14263 | 7355 ft | 165 kts | 339° |
| 2026-05-05 14:29 | 53.81214 | -2.14985 | 7824 ft | 165 kts | 338° |
| 2026-05-05 14:29 | 53.82280 | -2.15712 | 8271 ft | 166 kts | 338° |
| 2026-05-05 14:30 | 53.83352 | -2.16442 | 8716 ft | 166 kts | 337° |
| 2026-05-05 14:30 | 53.84429 | -2.17177 | 9157 ft | 168 kts | 336° |
| 2026-05-05 14:30 | 53.85514 | -2.17917 | 9615 ft | 168 kts | 336° |
| 2026-05-05 14:30 | 53.86605 | -2.18662 | 10035 ft | 170 kts | 336° |
| 2026-05-05 14:31 | 53.87705 | -2.19414 | 10436 ft | 171 kts | 336° |
| 2026-05-05 14:31 | 53.88800 | -2.20164 | 10824 ft | 172 kts | 336° |
| 2026-05-05 14:31 | 53.89914 | -2.20927 | 11218 ft | 173 kts | 336° |
| 2026-05-05 14:31 | 53.91036 | -2.21695 | 11628 ft | 174 kts | 335° |
| 2026-05-05 14:32 | 53.92163 | -2.22469 | 12024 ft | 176 kts | 335° |
| 2026-05-05 14:32 | 53.93301 | -2.23250 | 12434 ft | 177 kts | 335° |
| 2026-05-05 14:32 | 53.94448 | -2.24037 | 12842 ft | 178 kts | 335° |
| 2026-05-05 14:32 | 53.95600 | -2.24828 | 13251 ft | 179 kts | 335° |
| 2026-05-05 14:33 | 53.96761 | -2.25627 | 13654 ft | 181 kts | 335° |
| 2026-05-05 14:33 | 53.97931 | -2.26432 | 14031 ft | 182 kts | 335° |
| 2026-05-05 14:33 | 53.99107 | -2.27241 | 14387 ft | 183 kts | 335° |
| 2026-05-05 14:33 | 54.00289 | -2.28055 | 14746 ft | 184 kts | 335° |
| 2026-05-05 14:34 | 54.01477 | -2.28874 | 15105 ft | 185 kts | 334° |
| 2026-05-05 14:34 | 54.02674 | -2.29700 | 15464 ft | 186 kts | 334° |
| 2026-05-05 14:34 | 54.03880 | -2.30533 | 15816 ft | 188 kts | 334° |
| 2026-05-05 14:34 | 54.05092 | -2.31371 | 16167 ft | 189 kts | 334° |
| 2026-05-05 14:35 | 54.06313 | -2.32216 | 16519 ft | 190 kts | 334° |
| 2026-05-05 14:35 | 54.07541 | -2.33066 | 16865 ft | 191 kts | 334° |
| 2026-05-05 14:35 | 54.08777 | -2.33922 | 17197 ft | 192 kts | 334° |
| 2026-05-05 14:35 | 54.10019 | -2.34783 | 17549 ft | 193 kts | 333° |
| 2026-05-05 14:36 | 54.11271 | -2.35651 | 17899 ft | 195 kts | 333° |
| 2026-05-05 14:36 | 54.12546 | -2.36537 | 18016 ft | 204 kts | 334° |
| 2026-05-05 14:36 | 54.13895 | -2.37475 | 18024 ft | 215 kts | 334° |
| 2026-05-05 14:36 | 54.15305 | -2.38452 | 18025 ft | 222 kts | 334° |
| 2026-05-05 14:37 | 54.16749 | -2.39454 | 18026 ft | 226 kts | 334° |
| 2026-05-05 14:37 | 54.18212 | -2.40467 | 18030 ft | 227 kts | 334° |
| 2026-05-05 14:37 | 54.19673 | -2.41482 | 18030 ft | 233 kts | 334° |
| 2026-05-05 14:37 | 54.21198 | -2.42545 | 18031 ft | 240 kts | 334° |
| 2026-05-05 14:38 | 54.22762 | -2.43633 | 18030 ft | 245 kts | 334° |
| 2026-05-05 14:38 | 54.24355 | -2.44741 | 18029 ft | 249 kts | 334° |
| 2026-05-05 14:38 | 54.25965 | -2.45861 | 18032 ft | 251 kts | 334° |
| 2026-05-05 14:38 | 54.27038 | -2.46609 | 18034 ft | 252 kts | 334° |
| 2026-05-05 14:39 | 54.28665 | -2.47744 | 18028 ft | 253 kts | 334° |
| 2026-05-05 14:39 | 54.30299 | -2.48886 | 18030 ft | 254 kts | 334° |
| 2026-05-05 14:39 | 54.31937 | -2.50031 | 18029 ft | 254 kts | 334° |
| 2026-05-05 14:39 | 54.33578 | -2.51180 | 18029 ft | 254 kts | 334° |
| 2026-05-05 14:40 | 54.35219 | -2.52330 | 18032 ft | 254 kts | 334° |
| 2026-05-05 14:40 | 54.36859 | -2.53479 | 18032 ft | 255 kts | 334° |
| 2026-05-05 14:40 | 54.38501 | -2.54631 | 18034 ft | 255 kts | 334° |
| 2026-05-05 14:40 | 54.40147 | -2.55787 | 18029 ft | 254 kts | 334° |
| 2026-05-05 14:41 | 54.41782 | -2.56936 | 18028 ft | 254 kts | 334° |
| 2026-05-05 14:41 | 54.43422 | -2.58090 | 18033 ft | 254 kts | 334° |
| 2026-05-05 14:41 | 54.45061 | -2.59245 | 18029 ft | 254 kts | 334° |
| 2026-05-05 14:41 | 54.46679 | -2.60385 | 18033 ft | 254 kts | 334° |
| 2026-05-05 14:42 | 54.48319 | -2.61542 | 18036 ft | 255 kts | 334° |
| 2026-05-05 14:42 | 54.49962 | -2.62701 | 18032 ft | 254 kts | 334° |
| 2026-05-05 14:42 | 54.51597 | -2.63857 | 18032 ft | 254 kts | 334° |
| 2026-05-05 14:42 | 54.53233 | -2.65015 | 18035 ft | 254 kts | 334° |
| 2026-05-05 14:43 | 54.54866 | -2.66172 | 18036 ft | 253 kts | 334° |
| 2026-05-05 14:43 | 54.56497 | -2.67329 | 18038 ft | 254 kts | 334° |
| 2026-05-05 14:43 | 54.58133 | -2.68489 | 18036 ft | 254 kts | 334° |
| 2026-05-05 14:43 | 54.59746 | -2.69635 | 18035 ft | 254 kts | 334° |
| 2026-05-05 14:44 | 54.61375 | -2.70793 | 18035 ft | 253 kts | 334° |
| 2026-05-05 14:44 | 54.63002 | -2.71951 | 18036 ft | 253 kts | 334° |
| 2026-05-05 14:44 | 54.64632 | -2.73111 | 18038 ft | 253 kts | 334° |
| 2026-05-05 14:44 | 54.66256 | -2.74269 | 18041 ft | 253 kts | 334° |
| 2026-05-05 14:45 | 54.67882 | -2.75429 | 18042 ft | 253 kts | 334° |
| 2026-05-05 14:45 | 54.69507 | -2.76589 | 18037 ft | 253 kts | 334° |
| 2026-05-05 14:45 | 54.71136 | -2.77752 | 18041 ft | 253 kts | 334° |
| 2026-05-05 14:45 | 54.72759 | -2.78913 | 18040 ft | 253 kts | 334° |
| 2026-05-05 14:46 | 54.74384 | -2.80076 | 18043 ft | 252 kts | 334° |
| 2026-05-05 14:46 | 54.76008 | -2.81239 | 18044 ft | 252 kts | 334° |
| 2026-05-05 14:46 | 54.77627 | -2.82401 | 18042 ft | 252 kts | 333° |
| 2026-05-05 14:46 | 54.79247 | -2.83563 | 18041 ft | 252 kts | 333° |
| 2026-05-05 14:47 | 54.80865 | -2.84725 | 18046 ft | 252 kts | 333° |
| 2026-05-05 14:47 | 54.82487 | -2.85891 | 18045 ft | 252 kts | 333° |
| 2026-05-05 14:47 | 54.84105 | -2.87055 | 18048 ft | 252 kts | 333° |
| 2026-05-05 14:47 | 54.85700 | -2.88204 | 18052 ft | 251 kts | 333° |
| 2026-05-05 14:48 | 54.87315 | -2.89368 | 18050 ft | 251 kts | 333° |
| 2026-05-05 14:48 | 54.88934 | -2.90536 | 18049 ft | 251 kts | 333° |
| 2026-05-05 14:48 | 54.90546 | -2.91699 | 18052 ft | 251 kts | 333° |
| 2026-05-05 14:48 | 54.92161 | -2.92866 | 18049 ft | 251 kts | 333° |
| 2026-05-05 14:49 | 54.93785 | -2.94041 | 17726 ft | 255 kts | 334° |
| 2026-05-05 14:49 | 54.95429 | -2.95229 | 17448 ft | 255 kts | 334° |
| 2026-05-05 14:49 | 54.97060 | -2.96408 | 17238 ft | 253 kts | 334° |
| 2026-05-05 14:49 | 54.98676 | -2.97581 | 17026 ft | 251 kts | 334° |
| 2026-05-05 14:50 | 55.00287 | -2.98752 | 16823 ft | 250 kts | 334° |
| 2026-05-05 14:50 | 55.01894 | -2.99919 | 16608 ft | 250 kts | 334° |
| 2026-05-05 14:50 | 55.03494 | -3.01083 | 16400 ft | 249 kts | 334° |
| 2026-05-05 14:50 | 55.05087 | -3.02242 | 16195 ft | 248 kts | 334° |
| 2026-05-05 14:51 | 55.06674 | -3.03398 | 15990 ft | 247 kts | 334° |
| 2026-05-05 14:51 | 55.08253 | -3.04549 | 15792 ft | 246 kts | 334° |
| 2026-05-05 14:51 | 55.09831 | -3.05700 | 15585 ft | 245 kts | 334° |
| 2026-05-05 14:51 | 55.11383 | -3.06834 | 15387 ft | 245 kts | 334° |
| 2026-05-05 14:52 | 55.12952 | -3.07981 | 15189 ft | 244 kts | 334° |
| 2026-05-05 14:52 | 55.14518 | -3.09126 | 14992 ft | 243 kts | 334° |
| 2026-05-05 14:52 | 55.16075 | -3.10265 | 14792 ft | 242 kts | 334° |
| 2026-05-05 14:52 | 55.17628 | -3.11404 | 14600 ft | 242 kts | 334° |
| 2026-05-05 14:53 | 55.19176 | -3.12540 | 14406 ft | 241 kts | 334° |
| 2026-05-05 14:53 | 55.20730 | -3.13680 | 14213 ft | 241 kts | 334° |
| 2026-05-05 14:53 | 55.22274 | -3.14814 | 14024 ft | 240 kts | 334° |
| 2026-05-05 14:53 | 55.23816 | -3.15948 | 13828 ft | 240 kts | 334° |
| 2026-05-05 14:54 | 55.25354 | -3.17079 | 13615 ft | 239 kts | 334° |
| 2026-05-05 14:54 | 55.26887 | -3.18208 | 13401 ft | 238 kts | 334° |
| 2026-05-05 14:54 | 55.28415 | -3.19334 | 13185 ft | 238 kts | 334° |
| 2026-05-05 14:54 | 55.29970 | -3.20186 | 12973 ft | 240 kts | 347° |
| 2026-05-05 14:55 | 55.31655 | -3.20176 | 12750 ft | 244 kts | 0° |
| 2026-05-05 14:55 | 55.33346 | -3.19900 | 12518 ft | 245 kts | 1° |
| 2026-05-05 14:55 | 55.35047 | -3.19625 | 12281 ft | 246 kts | 0° |
| 2026-05-05 14:55 | 55.36749 | -3.19360 | 12054 ft | 245 kts | 0° |
| 2026-05-05 14:56 | 55.38442 | -3.19098 | 11826 ft | 244 kts | 0° |
| 2026-05-05 14:56 | 55.40135 | -3.18834 | 11595 ft | 244 kts | 0° |
| 2026-05-05 14:56 | 55.41824 | -3.18568 | 11374 ft | 243 kts | 0° |
| 2026-05-05 14:56 | 55.43510 | -3.18303 | 11148 ft | 243 kts | 0° |
| 2026-05-05 14:57 | 55.45192 | -3.18040 | 10928 ft | 243 kts | 0° |
| 2026-05-05 14:57 | 55.46873 | -3.17777 | 10708 ft | 243 kts | 0° |
| 2026-05-05 14:57 | 55.48557 | -3.17513 | 10490 ft | 243 kts | 0° |
| 2026-05-05 14:57 | 55.50240 | -3.17249 | 10273 ft | 243 kts | 1° |
| 2026-05-05 14:58 | 55.51918 | -3.16984 | 10046 ft | 242 kts | 1° |
| 2026-05-05 14:58 | 55.53593 | -3.16720 | 9820 ft | 241 kts | 1° |
| 2026-05-05 14:58 | 55.55259 | -3.16457 | 9573 ft | 240 kts | 1° |
| 2026-05-05 14:58 | 55.56916 | -3.16197 | 9331 ft | 239 kts | 1° |
| 2026-05-05 14:59 | 55.58571 | -3.15936 | 9095 ft | 238 kts | 1° |
| 2026-05-05 14:59 | 55.60230 | -3.15674 | 8855 ft | 239 kts | 1° |
| 2026-05-05 14:59 | 55.61886 | -3.15413 | 8619 ft | 239 kts | 1° |
| 2026-05-05 14:59 | 55.63543 | -3.15151 | 8381 ft | 238 kts | 1° |
| 2026-05-05 15:00 | 55.65189 | -3.14889 | 8153 ft | 237 kts | 1° |
| 2026-05-05 15:00 | 55.66276 | -3.14718 | 8000 ft | 237 kts | 1° |
| 2026-05-05 15:00 | 55.68448 | -3.14373 | 7699 ft | 237 kts | 1° |
| 2026-05-05 15:00 | 55.70072 | -3.14469 | 7386 ft | 234 kts | 345° |
| 2026-05-05 15:01 | 55.71544 | -3.15643 | 7053 ft | 233 kts | 322° |
| 2026-05-05 15:01 | 55.72684 | -3.17615 | 6916 ft | 226 kts | 313° |
| 2026-05-05 15:01 | 55.73781 | -3.19601 | 6720 ft | 225 kts | 314° |
| 2026-05-05 15:01 | 55.74874 | -3.21603 | 6502 ft | 226 kts | 313° |
| 2026-05-05 15:02 | 55.75967 | -3.23646 | 6170 ft | 230 kts | 313° |
| 2026-05-05 15:02 | 55.77064 | -3.25731 | 5892 ft | 231 kts | 313° |
| 2026-05-05 15:02 | 55.78160 | -3.27809 | 5688 ft | 230 kts | 314° |
| 2026-05-05 15:02 | 55.79276 | -3.29877 | 5347 ft | 234 kts | 315° |
| 2026-05-05 15:03 | 55.80431 | -3.31968 | 4971 ft | 238 kts | 316° |
| 2026-05-05 15:03 | 55.81615 | -3.34016 | 4729 ft | 236 kts | 318° |
| 2026-05-05 15:03 | 55.82763 | -3.36078 | 4504 ft | 234 kts | 313° |
| 2026-05-05 15:03 | 55.83771 | -3.38328 | 4376 ft | 231 kts | 308° |
| 2026-05-05 15:04 | 55.84769 | -3.40556 | 4213 ft | 230 kts | 314° |
| 2026-05-05 15:04 | 55.85879 | -3.42602 | 4002 ft | 232 kts | 320° |
| 2026-05-05 15:04 | 55.87087 | -3.44563 | 3710 ft | 234 kts | 318° |
| 2026-05-05 15:04 | 55.88185 | -3.46542 | 3956 ft | 217 kts | 317° |
| 2026-05-05 15:05 | 55.90155 | -3.50141 | 4337 ft | 202 kts | 321° |
| 2026-05-05 15:05 | 55.91430 | -3.51097 | 4241 ft | 203 kts | 358° |
| 2026-05-05 15:05 | 55.92816 | -3.50695 | 4157 ft | 206 kts | 24° |
| 2026-05-05 15:06 | 55.93938 | -3.49158 | 4076 ft | 207 kts | 52° |
| 2026-05-05 15:06 | 55.94459 | -3.46800 | 4092 ft | 206 kts | 81° |
| 2026-05-05 15:06 | 55.94338 | -3.44254 | 4098 ft | 208 kts | 103° |
| 2026-05-05 15:06 | 55.93612 | -3.41990 | 4076 ft | 216 kts | 128° |
| 2026-05-05 15:07 | 55.92395 | -3.40425 | 3995 ft | 224 kts | 154° |
| 2026-05-05 15:07 | 55.90847 | -3.39979 | 4074 ft | 225 kts | 181° |
| 2026-05-05 15:07 | 55.89375 | -3.40820 | 4074 ft | 229 kts | 210° |
| 2026-05-05 15:07 | 55.88234 | -3.42786 | 4036 ft | 231 kts | 237° |
| 2026-05-05 15:08 | 55.87429 | -3.45198 | 4159 ft | 221 kts | 241° |
| 2026-05-05 15:08 | 55.86679 | -3.47588 | 4168 ft | 223 kts | 242° |
| 2026-05-05 15:08 | 55.85863 | -3.49957 | 4128 ft | 224 kts | 238° |
| 2026-05-05 15:08 | 55.85047 | -3.52338 | 4106 ft | 226 kts | 239° |
| 2026-05-05 15:09 | 55.84228 | -3.54734 | 4047 ft | 228 kts | 239° |
| 2026-05-05 15:09 | 55.83388 | -3.57119 | 4076 ft | 227 kts | 237° |
| 2026-05-05 15:09 | 55.82494 | -3.59400 | 4147 ft | 223 kts | 233° |
| 2026-05-05 15:09 | 55.81552 | -3.61579 | 4153 ft | 222 kts | 234° |
| 2026-05-05 15:10 | 55.80720 | -3.63887 | 4143 ft | 222 kts | 238° |
| 2026-05-05 15:10 | 55.79895 | -3.66211 | 4148 ft | 220 kts | 238° |
| 2026-05-05 15:10 | 55.79100 | -3.68409 | 4135 ft | 204 kts | 237° |
| 2026-05-05 15:10 | 55.78346 | -3.70416 | 4134 ft | 186 kts | 236° |
| 2026-05-05 15:11 | 55.77649 | -3.72194 | 4140 ft | 165 kts | 232° |
| 2026-05-05 15:11 | 55.77160 | -3.73864 | 4140 ft | 151 kts | 257° |
| 2026-05-05 15:11 | 55.77162 | -3.75677 | 4170 ft | 144 kts | 288° |
| 2026-05-05 15:11 | 55.77728 | -3.77037 | 4190 ft | 136 kts | 331° |
| 2026-05-05 15:12 | 55.78621 | -3.77380 | 4185 ft | 132 kts | 9° |
| 2026-05-05 15:12 | 55.79524 | -3.77122 | 4193 ft | 131 kts | 12° |
| 2026-05-05 15:12 | 55.80412 | -3.76797 | 4203 ft | 129 kts | 15° |
| 2026-05-05 15:12 | 55.81277 | -3.76438 | 4224 ft | 127 kts | 15° |
| 2026-05-05 15:13 | 55.82137 | -3.76043 | 4209 ft | 127 kts | 28° |
| 2026-05-05 15:13 | 55.82607 | -3.74737 | 4117 ft | 132 kts | 79° |
| 2026-05-05 15:13 | 55.82710 | -3.73199 | 4130 ft | 118 kts | 81° |
| 2026-05-05 15:13 | 55.82962 | -3.71930 | 4154 ft | 102 kts | 57° |
| 2026-05-05 15:14 | 55.83343 | -3.70928 | 4161 ft | 96 kts | 54° |
| 2026-05-05 15:14 | 55.83738 | -3.69989 | 4141 ft | 95 kts | 49° |
| 2026-05-05 15:14 | 55.84156 | -3.69096 | 4129 ft | 91 kts | 52° |
| 2026-05-05 15:14 | 55.84494 | -3.68190 | 4078 ft | 84 kts | 57° |
| 2026-05-05 15:15 | 55.84782 | -3.67346 | 3977 ft | 76 kts | 60° |
| 2026-05-05 15:15 | 55.85043 | -3.66543 | 3807 ft | 72 kts | 58° |
| 2026-05-05 15:15 | 55.85558 | -3.65249 | 3641 ft | 66 kts | 49° |
| 2026-05-05 15:16 | 55.85830 | -3.64591 | 3531 ft | 67 kts | 59° |
| 2026-05-05 15:16 | 55.86062 | -3.63863 | 3421 ft | 68 kts | 59° |
| 2026-05-05 15:16 | 55.86302 | -3.63156 | 3349 ft | 66 kts | 57° |
| 2026-05-05 15:16 | 55.86538 | -3.62461 | 3230 ft | 66 kts | 61° |
| 2026-05-05 15:17 | 55.86756 | -3.61755 | 3160 ft | 63 kts | 60° |
| 2026-05-05 15:17 | 55.86971 | -3.61107 | 3106 ft | 60 kts | 60° |
| 2026-05-05 15:17 | 55.87193 | -3.60451 | 3097 ft | 59 kts | 55° |
| 2026-05-05 15:17 | 55.87427 | -3.59837 | 3012 ft | 65 kts | 64° |
| 2026-05-05 15:18 | 55.87642 | -3.59134 | 2948 ft | 64 kts | 59° |
| 2026-05-05 15:18 | 55.87876 | -3.58399 | 2846 ft | 71 kts | 60° |
| 2026-05-05 15:18 | 55.88142 | -3.57646 | 2672 ft | 72 kts | 58° |
| 2026-05-05 15:18 | 55.88402 | -3.56916 | 2519 ft | 68 kts | 63° |
| 2026-05-05 15:19 | 55.88654 | -3.56205 | 2442 ft | 67 kts | 60° |
| 2026-05-05 15:19 | 55.88897 | -3.55496 | 2396 ft | 67 kts | 62° |
| 2026-05-05 15:19 | 55.89147 | -3.54801 | 2403 ft | 64 kts | 61° |
| 2026-05-05 15:19 | 55.89369 | -3.54123 | 2279 ft | 62 kts | 65° |
| 2026-05-05 15:20 | 55.89575 | -3.53435 | 2182 ft | 63 kts | 63° |
| 2026-05-05 15:20 | 55.89815 | -3.52736 | 2079 ft | 68 kts | 63° |
| 2026-05-05 15:20 | 55.90069 | -3.52023 | 1973 ft | 69 kts | 59° |
| 2026-05-05 15:20 | 55.90331 | -3.51324 | 1882 ft | 67 kts | 63° |
| 2026-05-05 15:21 | 55.90563 | -3.50641 | 1794 ft | 66 kts | 64° |
| 2026-05-05 15:21 | 55.90798 | -3.49949 | 1688 ft | 65 kts | 63° |
| 2026-05-05 15:21 | 55.91024 | -3.49266 | 1591 ft | 63 kts | 64° |
| 2026-05-05 15:21 | 55.91246 | -3.48583 | 1485 ft | 64 kts | 65° |
| 2026-05-05 15:22 | 55.91477 | -3.47908 | 1404 ft | 64 kts | 64° |
| 2026-05-05 15:22 | 55.91700 | -3.47234 | 1365 ft | 64 kts | 62° |
| 2026-05-05 15:22 | 55.91933 | -3.46519 | 1252 ft | 68 kts | 64° |
| 2026-05-05 15:22 | 55.92165 | -3.45805 | 1136 ft | 65 kts | 63° |
| 2026-05-05 15:23 | 55.92393 | -3.45111 | 1029 ft | 64 kts | 63° |
| 2026-05-05 15:23 | 55.92626 | -3.44430 | 921 ft | 64 kts | 63° |
| 2026-05-05 15:23 | 55.92860 | -3.43740 | 851 ft | 67 kts | 63° |
| 2026-05-05 15:23 | 55.93100 | -3.43013 | 775 ft | 68 kts | 63° |
| 2026-05-05 15:24 | 55.93344 | -3.42296 | 666 ft | 67 kts | 66° |
| 2026-05-05 15:24 | 55.93576 | -3.41565 | 541 ft | 67 kts | 65° |
| 2026-05-05 15:24 | 55.93800 | -3.40870 | 471 ft | 64 kts | 63° |
| 2026-05-05 15:24 | 55.94031 | -3.40162 | 374 ft | 66 kts | 63° |
| 2026-05-05 15:25 | 55.94255 | -3.39467 | 257 ft | 65 kts | 60° |
| 2026-05-05 15:25 | 55.94488 | -3.38767 | 136 ft | 65 kts | 59° |
| 2026-05-05 15:25 | 55.94699 | -3.38145 | 111 ft | 50 kts | 58° |
| 2026-05-05 15:25 | 55.94853 | -3.37688 | 110 ft | 36 kts | 59° |
| 2026-05-05 15:26 | 55.94963 | -3.37360 | 108 ft | 26 kts | 59° |
| 2026-05-05 15:26 | 55.95043 | -3.37127 | 108 ft | 20 kts | 59° |
| 2026-05-05 15:26 | 55.95111 | -3.36922 | 110 ft | 19 kts | 58° |
| 2026-05-05 15:26 | 55.95182 | -3.36726 | 110 ft | 19 kts | 56° |
| 2026-05-05 15:27 | 55.95251 | -3.36530 | 108 ft | 19 kts | 63° |
| 2026-05-05 15:27 | 55.95206 | -3.36363 | 111 ft | 14 kts | 147° |
| 2026-05-05 15:27 | 55.95176 | -3.36332 | 112 ft | 0 kts | 152° |
| 2026-05-05 15:27 | 55.95173 | -3.36328 | 112 ft | 0 kts | 153° |
| 2026-05-05 15:28 | 55.95173 | -3.36329 | 112 ft | 0 kts | 153° |
| 2026-05-05 15:29 | 55.95171 | -3.36327 | 112 ft | 3 kts | 152° |
| 2026-05-05 15:29 | 55.95133 | -3.36214 | 112 ft | 16 kts | 108° |
| 2026-05-05 15:30 | 55.95097 | -3.36011 | 110 ft | 18 kts | 108° |
| 2026-05-05 15:30 | 55.95048 | -3.35814 | 113 ft | 16 kts | 81° |
| 2026-05-05 15:30 | 55.95037 | -3.35633 | 113 ft | 15 kts | 120° |
| 2026-05-05 15:30 | 55.94982 | -3.35458 | 113 ft | 17 kts | 118° |
| 2026-05-05 15:31 | 55.94924 | -3.35265 | 113 ft | 18 kts | 119° |
| 2026-05-05 15:31 | 55.94863 | -3.35066 | 111 ft | 19 kts | 118° |
| 2026-05-05 15:31 | 55.94863 | -3.34880 | 113 ft | 17 kts | 30° |
| 2026-05-05 15:31 | 55.94951 | -3.34872 | 112 ft | 11 kts | 305° |
| 2026-05-05 15:32 | 55.95013 | -3.34843 | 111 ft | 9 kts | 29° |
| 2026-05-05 15:32 | 55.95026 | -3.34830 | 112 ft | 0 kts | 29° |